METAR Data

Data at: 0959 UTC 23 Jan 2019

METAR for:KORD (Chicago/O'Hare Intl, IL, US)
Text:KORD 230951Z 03006KT 1/4SM R10L/2400V4000FT -DZ BR VV003 01/01 A2974 RMK AO2 SFC VIS 1 SLP079 P0001 T00060006
Temperature: 0.6°C ( 33°F)
Dewpoint: 0.6°C ( 33°F) [RH = 100%]
Pressure (altimeter):29.74 inches Hg (1007.2 mb) [Sea level pressure: 1007.9 mb]
Winds:from the NNE (30 degrees) at 7 MPH (6 knots; 3.1 m/s)
Visibility: 0.25 sm ( 0.40 km)
Ceiling:indefinite ceiling with vertical visibility of 300 feet AGL
Clouds:obscured sky
Weather:-DZ BR (light drizzle, mist)